sensor_id;sensor_type;location;lat;lon;timestamp;P1;durP1;ratioP1;P2;durP2;ratioP2
19883;SDS011;10104;50.732;10.174;2024-02-26T00:02:16;7.60;;;3.70;;
19883;SDS011;10104;50.732;10.174;2024-02-26T00:04:56;7.40;;;4.30;;
19883;SDS011;10104;50.732;10.174;2024-02-26T00:07:36;8.93;;;4.13;;
19883;SDS011;10104;50.732;10.174;2024-02-26T00:10:17;8.83;;;4.33;;
19883;SDS011;10104;50.732;10.174;2024-02-26T00:12:58;8.83;;;5.00;;
19883;SDS011;10104;50.732;10.174;2024-02-26T00:15:38;7.13;;;3.87;;
19883;SDS011;10104;50.732;10.174;2024-02-26T00:18:18;9.40;;;3.73;;
19883;SDS011;10104;50.732;10.174;2024-02-26T00:20:58;8.83;;;4.40;;
19883;SDS011;10104;50.732;10.174;2024-02-26T00:23:39;8.20;;;4.53;;
19883;SDS011;10104;50.732;10.174;2024-02-26T00:26:19;6.77;;;4.00;;
19883;SDS011;10104;50.732;10.174;2024-02-26T00:29:00;5.70;;;3.07;;
19883;SDS011;10104;50.732;10.174;2024-02-26T00:31:40;5.70;;;2.90;;
19883;SDS011;10104;50.732;10.174;2024-02-26T00:34:20;3.90;;;2.73;;
19883;SDS011;10104;50.732;10.174;2024-02-26T00:37:01;3.50;;;2.70;;
19883;SDS011;10104;50.732;10.174;2024-02-26T00:39:41;4.87;;;2.87;;
19883;SDS011;10104;50.732;10.174;2024-02-26T00:42:22;5.90;;;3.10;;
19883;SDS011;10104;50.732;10.174;2024-02-26T00:45:02;5.63;;;3.10;;
19883;SDS011;10104;50.732;10.174;2024-02-26T00:47:43;4.10;;;2.70;;
19883;SDS011;10104;50.732;10.174;2024-02-26T00:50:25;6.50;;;3.33;;
19883;SDS011;10104;50.732;10.174;2024-02-26T00:53:05;4.43;;;2.80;;
19883;SDS011;10104;50.732;10.174;2024-02-26T00:55:45;5.87;;;3.40;;
19883;SDS011;10104;50.732;10.174;2024-02-26T00:58:26;5.00;;;3.30;;
19883;SDS011;10104;50.732;10.174;2024-02-26T01:01:07;5.73;;;3.67;;
19883;SDS011;10104;50.732;10.174;2024-02-26T01:03:47;5.17;;;2.80;;
19883;SDS011;10104;50.732;10.174;2024-02-26T01:06:27;7.60;;;3.50;;
19883;SDS011;10104;50.732;10.174;2024-02-26T01:09:08;6.07;;;3.57;;
19883;SDS011;10104;50.732;10.174;2024-02-26T01:11:48;6.07;;;3.30;;
19883;SDS011;10104;50.732;10.174;2024-02-26T01:14:28;5.03;;;2.90;;
19883;SDS011;10104;50.732;10.174;2024-02-26T01:17:08;5.00;;;3.00;;
19883;SDS011;10104;50.732;10.174;2024-02-26T01:19:49;6.40;;;3.30;;
19883;SDS011;10104;50.732;10.174;2024-02-26T01:22:29;6.07;;;3.03;;
19883;SDS011;10104;50.732;10.174;2024-02-26T01:25:09;5.03;;;3.23;;
19883;SDS011;10104;50.732;10.174;2024-02-26T01:27:50;7.70;;;4.03;;
19883;SDS011;10104;50.732;10.174;2024-02-26T01:30:30;11.60;;;5.40;;
19883;SDS011;10104;50.732;10.174;2024-02-26T01:33:11;7.17;;;4.00;;
19883;SDS011;10104;50.732;10.174;2024-02-26T01:35:51;4.93;;;3.37;;
19883;SDS011;10104;50.732;10.174;2024-02-26T01:38:31;4.27;;;2.33;;
19883;SDS011;10104;50.732;10.174;2024-02-26T01:41:13;4.37;;;2.97;;
19883;SDS011;10104;50.732;10.174;2024-02-26T01:43:54;5.43;;;3.13;;
19883;SDS011;10104;50.732;10.174;2024-02-26T01:46:34;6.60;;;3.37;;
19883;SDS011;10104;50.732;10.174;2024-02-26T01:49:15;7.10;;;3.60;;
19883;SDS011;10104;50.732;10.174;2024-02-26T01:51:56;4.37;;;2.90;;
19883;SDS011;10104;50.732;10.174;2024-02-26T01:54:37;4.37;;;2.90;;
19883;SDS011;10104;50.732;10.174;2024-02-26T01:57:18;6.20;;;2.60;;
19883;SDS011;10104;50.732;10.174;2024-02-26T01:59:59;4.53;;;2.40;;
19883;SDS011;10104;50.732;10.174;2024-02-26T02:02:39;4.70;;;2.10;;
19883;SDS011;10104;50.732;10.174;2024-02-26T02:05:22;2.73;;;2.10;;
19883;SDS011;10104;50.732;10.174;2024-02-26T02:08:02;3.70;;;2.40;;
19883;SDS011;10104;50.732;10.174;2024-02-26T02:10:44;4.80;;;2.70;;
19883;SDS011;10104;50.732;10.174;2024-02-26T02:13:27;5.43;;;2.40;;
19883;SDS011;10104;50.732;10.174;2024-02-26T02:16:08;4.17;;;2.40;;
19883;SDS011;10104;50.732;10.174;2024-02-26T02:18:48;3.20;;;2.40;;
19883;SDS011;10104;50.732;10.174;2024-02-26T02:21:28;3.43;;;2.13;;
19883;SDS011;10104;50.732;10.174;2024-02-26T02:24:08;4.50;;;2.50;;
19883;SDS011;10104;50.732;10.174;2024-02-26T02:26:49;5.87;;;2.70;;
19883;SDS011;10104;50.732;10.174;2024-02-26T02:29:29;4.97;;;2.60;;
19883;SDS011;10104;50.732;10.174;2024-02-26T02:32:10;4.30;;;2.70;;
19883;SDS011;10104;50.732;10.174;2024-02-26T02:34:51;5.23;;;2.70;;
19883;SDS011;10104;50.732;10.174;2024-02-26T02:37:31;4.20;;;2.47;;
19883;SDS011;10104;50.732;10.174;2024-02-26T02:40:11;5.77;;;2.67;;
19883;SDS011;10104;50.732;10.174;2024-02-26T02:42:51;2.93;;;2.30;;
19883;SDS011;10104;50.732;10.174;2024-02-26T02:45:31;4.37;;;2.93;;
19883;SDS011;10104;50.732;10.174;2024-02-26T02:48:11;4.23;;;2.57;;
19883;SDS011;10104;50.732;10.174;2024-02-26T02:50:52;4.53;;;2.83;;
19883;SDS011;10104;50.732;10.174;2024-02-26T02:53:32;4.20;;;2.73;;
19883;SDS011;10104;50.732;10.174;2024-02-26T02:56:12;3.90;;;2.50;;
19883;SDS011;10104;50.732;10.174;2024-02-26T02:58:53;3.53;;;2.50;;
19883;SDS011;10104;50.732;10.174;2024-02-26T03:01:33;3.90;;;2.70;;
19883;SDS011;10104;50.732;10.174;2024-02-26T03:04:13;6.33;;;2.80;;
19883;SDS011;10104;50.732;10.174;2024-02-26T03:06:53;4.03;;;3.00;;
19883;SDS011;10104;50.732;10.174;2024-02-26T03:09:33;4.03;;;3.10;;
19883;SDS011;10104;50.732;10.174;2024-02-26T03:12:13;4.80;;;3.10;;
19883;SDS011;10104;50.732;10.174;2024-02-26T03:14:54;3.20;;;2.70;;
19883;SDS011;10104;50.732;10.174;2024-02-26T03:17:34;4.27;;;3.07;;
19883;SDS011;10104;50.732;10.174;2024-02-26T03:20:14;4.67;;;3.13;;
19883;SDS011;10104;50.732;10.174;2024-02-26T03:22:54;5.10;;;2.93;;
19883;SDS011;10104;50.732;10.174;2024-02-26T03:25:34;4.87;;;2.97;;
19883;SDS011;10104;50.732;10.174;2024-02-26T03:28:14;4.50;;;3.07;;
19883;SDS011;10104;50.732;10.174;2024-02-26T03:30:55;4.27;;;3.10;;
19883;SDS011;10104;50.732;10.174;2024-02-26T03:33:35;4.33;;;2.67;;
19883;SDS011;10104;50.732;10.174;2024-02-26T03:36:16;4.83;;;2.60;;
19883;SDS011;10104;50.732;10.174;2024-02-26T03:38:56;3.87;;;2.60;;
19883;SDS011;10104;50.732;10.174;2024-02-26T03:41:36;4.30;;;2.93;;
19883;SDS011;10104;50.732;10.174;2024-02-26T03:44:16;3.93;;;2.50;;
19883;SDS011;10104;50.732;10.174;2024-02-26T03:46:56;5.37;;;3.07;;
19883;SDS011;10104;50.732;10.174;2024-02-26T03:49:36;4.07;;;2.50;;
19883;SDS011;10104;50.732;10.174;2024-02-26T03:52:17;2.87;;;2.03;;
19883;SDS011;10104;50.732;10.174;2024-02-26T03:54:57;2.73;;;2.00;;
19883;SDS011;10104;50.732;10.174;2024-02-26T03:57:37;4.60;;;2.73;;
19883;SDS011;10104;50.732;10.174;2024-02-26T04:00:18;3.50;;;2.53;;
19883;SDS011;10104;50.732;10.174;2024-02-26T04:03:01;4.33;;;2.50;;
19883;SDS011;10104;50.732;10.174;2024-02-26T04:05:42;4.83;;;2.73;;
19883;SDS011;10104;50.732;10.174;2024-02-26T04:08:22;3.77;;;2.30;;
19883;SDS011;10104;50.732;10.174;2024-02-26T04:11:03;4.03;;;2.67;;
19883;SDS011;10104;50.732;10.174;2024-02-26T04:13:47;4.83;;;2.60;;
19883;SDS011;10104;50.732;10.174;2024-02-26T04:16:29;4.23;;;2.43;;
19883;SDS011;10104;50.732;10.174;2024-02-26T04:19:09;3.37;;;2.20;;
19883;SDS011;10104;50.732;10.174;2024-02-26T04:21:49;5.33;;;3.23;;
19883;SDS011;10104;50.732;10.174;2024-02-26T04:24:29;4.97;;;2.83;;
19883;SDS011;10104;50.732;10.174;2024-02-26T04:27:09;3.40;;;2.60;;
19883;SDS011;10104;50.732;10.174;2024-02-26T04:29:49;7.20;;;3.87;;
19883;SDS011;10104;50.732;10.174;2024-02-26T04:32:29;5.87;;;3.30;;
19883;SDS011;10104;50.732;10.174;2024-02-26T04:35:10;3.27;;;2.30;;
19883;SDS011;10104;50.732;10.174;2024-02-26T04:37:50;3.70;;;2.23;;
19883;SDS011;10104;50.732;10.174;2024-02-26T04:40:30;3.70;;;2.40;;
19883;SDS011;10104;50.732;10.174;2024-02-26T04:43:10;4.87;;;2.77;;
19883;SDS011;10104;50.732;10.174;2024-02-26T04:45:50;3.17;;;2.30;;
19883;SDS011;10104;50.732;10.174;2024-02-26T04:48:32;6.67;;;3.20;;
19883;SDS011;10104;50.732;10.174;2024-02-26T04:51:12;7.80;;;3.93;;
19883;SDS011;10104;50.732;10.174;2024-02-26T04:53:52;8.30;;;3.60;;
19883;SDS011;10104;50.732;10.174;2024-02-26T04:56:34;10.90;;;4.77;;
19883;SDS011;10104;50.732;10.174;2024-02-26T04:59:14;11.43;;;4.87;;
19883;SDS011;10104;50.732;10.174;2024-02-26T05:01:54;16.00;;;6.10;;
19883;SDS011;10104;50.732;10.174;2024-02-26T05:04:34;15.63;;;6.97;;
19883;SDS011;10104;50.732;10.174;2024-02-26T05:07:14;13.03;;;6.00;;
19883;SDS011;10104;50.732;10.174;2024-02-26T05:09:55;9.37;;;5.30;;
19883;SDS011;10104;50.732;10.174;2024-02-26T05:12:36;14.10;;;6.37;;
19883;SDS011;10104;50.732;10.174;2024-02-26T05:15:16;13.57;;;7.17;;
19883;SDS011;10104;50.732;10.174;2024-02-26T05:17:58;11.23;;;5.40;;
19883;SDS011;10104;50.732;10.174;2024-02-26T05:20:39;15.20;;;6.00;;
19883;SDS011;10104;50.732;10.174;2024-02-26T05:23:20;8.40;;;4.27;;
19883;SDS011;10104;50.732;10.174;2024-02-26T05:26:02;7.30;;;4.20;;
19883;SDS011;10104;50.732;10.174;2024-02-26T05:28:43;6.23;;;3.47;;
19883;SDS011;10104;50.732;10.174;2024-02-26T05:31:24;7.70;;;4.17;;
19883;SDS011;10104;50.732;10.174;2024-02-26T05:34:04;10.67;;;4.67;;
19883;SDS011;10104;50.732;10.174;2024-02-26T05:36:44;10.33;;;5.30;;
19883;SDS011;10104;50.732;10.174;2024-02-26T05:39:24;11.70;;;5.63;;
19883;SDS011;10104;50.732;10.174;2024-02-26T05:42:04;23.00;;;10.20;;
19883;SDS011;10104;50.732;10.174;2024-02-26T05:44:45;34.37;;;15.40;;
19883;SDS011;10104;50.732;10.174;2024-02-26T05:47:25;29.40;;;13.50;;
19883;SDS011;10104;50.732;10.174;2024-02-26T05:50:05;33.50;;;15.23;;
19883;SDS011;10104;50.732;10.174;2024-02-26T05:52:46;56.30;;;21.93;;
19883;SDS011;10104;50.732;10.174;2024-02-26T05:55:26;17.63;;;8.30;;
19883;SDS011;10104;50.732;10.174;2024-02-26T05:58:07;15.37;;;7.40;;
19883;SDS011;10104;50.732;10.174;2024-02-26T06:00:47;10.77;;;5.90;;
19883;SDS011;10104;50.732;10.174;2024-02-26T06:03:28;27.67;;;11.50;;
19883;SDS011;10104;50.732;10.174;2024-02-26T06:06:08;37.83;;;12.90;;
19883;SDS011;10104;50.732;10.174;2024-02-26T06:08:49;17.43;;;7.50;;
19883;SDS011;10104;50.732;10.174;2024-02-26T06:11:30;6.27;;;3.83;;
19883;SDS011;10104;50.732;10.174;2024-02-26T06:14:10;8.83;;;4.63;;
19883;SDS011;10104;50.732;10.174;2024-02-26T06:16:53;7.37;;;3.83;;
19883;SDS011;10104;50.732;10.174;2024-02-26T06:19:33;6.83;;;3.37;;
19883;SDS011;10104;50.732;10.174;2024-02-26T06:22:13;4.97;;;3.10;;
19883;SDS011;10104;50.732;10.174;2024-02-26T06:24:54;5.63;;;3.33;;
19883;SDS011;10104;50.732;10.174;2024-02-26T06:27:35;6.23;;;3.43;;
19883;SDS011;10104;50.732;10.174;2024-02-26T06:30:15;7.40;;;3.60;;
19883;SDS011;10104;50.732;10.174;2024-02-26T06:32:55;6.90;;;4.03;;
19883;SDS011;10104;50.732;10.174;2024-02-26T06:35:35;6.40;;;3.73;;
19883;SDS011;10104;50.732;10.174;2024-02-26T06:38:15;5.47;;;3.80;;
19883;SDS011;10104;50.732;10.174;2024-02-26T06:40:57;9.20;;;6.03;;
19883;SDS011;10104;50.732;10.174;2024-02-26T06:43:37;6.27;;;3.03;;
19883;SDS011;10104;50.732;10.174;2024-02-26T06:46:17;5.73;;;3.47;;
19883;SDS011;10104;50.732;10.174;2024-02-26T06:48:57;5.43;;;4.00;;
19883;SDS011;10104;50.732;10.174;2024-02-26T06:51:37;7.23;;;3.90;;
19883;SDS011;10104;50.732;10.174;2024-02-26T06:54:18;6.03;;;4.10;;
19883;SDS011;10104;50.732;10.174;2024-02-26T06:56:58;7.27;;;4.10;;
19883;SDS011;10104;50.732;10.174;2024-02-26T06:59:39;6.27;;;3.57;;
19883;SDS011;10104;50.732;10.174;2024-02-26T07:02:20;5.53;;;3.70;;
19883;SDS011;10104;50.732;10.174;2024-02-26T07:05:00;5.30;;;3.20;;
19883;SDS011;10104;50.732;10.174;2024-02-26T07:07:40;4.63;;;3.27;;
19883;SDS011;10104;50.732;10.174;2024-02-26T07:10:21;6.97;;;3.63;;
19883;SDS011;10104;50.732;10.174;2024-02-26T07:13:01;16.20;;;7.70;;
19883;SDS011;10104;50.732;10.174;2024-02-26T07:15:41;12.10;;;6.33;;
19883;SDS011;10104;50.732;10.174;2024-02-26T07:18:21;11.57;;;6.57;;
19883;SDS011;10104;50.732;10.174;2024-02-26T07:21:02;11.83;;;4.63;;
19883;SDS011;10104;50.732;10.174;2024-02-26T07:23:43;9.03;;;4.50;;
19883;SDS011;10104;50.732;10.174;2024-02-26T07:26:23;8.40;;;4.13;;
19883;SDS011;10104;50.732;10.174;2024-02-26T07:29:06;8.63;;;4.10;;
19883;SDS011;10104;50.732;10.174;2024-02-26T07:31:46;9.40;;;4.47;;
19883;SDS011;10104;50.732;10.174;2024-02-26T07:34:27;11.13;;;5.87;;
19883;SDS011;10104;50.732;10.174;2024-02-26T07:37:10;17.50;;;8.13;;
19883;SDS011;10104;50.732;10.174;2024-02-26T07:39:50;19.83;;;9.13;;
19883;SDS011;10104;50.732;10.174;2024-02-26T07:42:30;17.57;;;8.60;;
19883;SDS011;10104;50.732;10.174;2024-02-26T07:45:11;10.47;;;5.60;;
19883;SDS011;10104;50.732;10.174;2024-02-26T07:47:51;10.07;;;5.47;;
19883;SDS011;10104;50.732;10.174;2024-02-26T07:50:32;13.73;;;7.40;;
19883;SDS011;10104;50.732;10.174;2024-02-26T07:53:12;11.10;;;5.53;;
19883;SDS011;10104;50.732;10.174;2024-02-26T07:55:53;6.63;;;4.40;;
19883;SDS011;10104;50.732;10.174;2024-02-26T07:58:33;5.63;;;4.33;;
19883;SDS011;10104;50.732;10.174;2024-02-26T08:01:13;7.20;;;4.20;;
19883;SDS011;10104;50.732;10.174;2024-02-26T08:03:54;5.10;;;3.13;;
19883;SDS011;10104;50.732;10.174;2024-02-26T08:06:35;5.27;;;3.60;;
19883;SDS011;10104;50.732;10.174;2024-02-26T08:09:17;6.07;;;3.90;;
19883;SDS011;10104;50.732;10.174;2024-02-26T08:11:57;4.97;;;3.20;;
19883;SDS011;10104;50.732;10.174;2024-02-26T08:14:37;6.43;;;4.30;;
19883;SDS011;10104;50.732;10.174;2024-02-26T08:17:17;6.43;;;4.23;;
19883;SDS011;10104;50.732;10.174;2024-02-26T08:19:57;8.80;;;5.80;;
19883;SDS011;10104;50.732;10.174;2024-02-26T08:22:37;7.83;;;5.17;;
19883;SDS011;10104;50.732;10.174;2024-02-26T08:25:19;4.47;;;3.37;;
19883;SDS011;10104;50.732;10.174;2024-02-26T08:27:59;5.37;;;3.67;;
19883;SDS011;10104;50.732;10.174;2024-02-26T08:30:39;5.70;;;4.00;;
19883;SDS011;10104;50.732;10.174;2024-02-26T08:33:19;6.27;;;4.43;;
19883;SDS011;10104;50.732;10.174;2024-02-26T08:36:03;7.93;;;4.60;;
19883;SDS011;10104;50.732;10.174;2024-02-26T08:38:44;10.77;;;5.90;;
19883;SDS011;10104;50.732;10.174;2024-02-26T08:41:24;16.33;;;8.70;;
19883;SDS011;10104;50.732;10.174;2024-02-26T08:44:04;10.30;;;7.27;;
19883;SDS011;10104;50.732;10.174;2024-02-26T08:46:45;5.27;;;3.00;;
19883;SDS011;10104;50.732;10.174;2024-02-26T08:49:25;2.90;;;2.10;;
19883;SDS011;10104;50.732;10.174;2024-02-26T08:52:05;3.53;;;2.70;;
19883;SDS011;10104;50.732;10.174;2024-02-26T08:54:46;3.33;;;2.20;;
19883;SDS011;10104;50.732;10.174;2024-02-26T08:57:27;3.80;;;1.97;;
19883;SDS011;10104;50.732;10.174;2024-02-26T09:00:07;1.67;;;1.40;;
19883;SDS011;10104;50.732;10.174;2024-02-26T09:02:48;3.80;;;1.87;;
19883;SDS011;10104;50.732;10.174;2024-02-26T09:05:29;2.93;;;1.93;;
19883;SDS011;10104;50.732;10.174;2024-02-26T09:08:09;2.07;;;1.67;;
19883;SDS011;10104;50.732;10.174;2024-02-26T09:10:50;2.77;;;1.70;;
19883;SDS011;10104;50.732;10.174;2024-02-26T09:13:30;2.67;;;1.57;;
19883;SDS011;10104;50.732;10.174;2024-02-26T09:16:11;2.27;;;1.60;;
19883;SDS011;10104;50.732;10.174;2024-02-26T09:18:51;3.23;;;1.83;;
19883;SDS011;10104;50.732;10.174;2024-02-26T09:21:31;3.70;;;1.70;;
19883;SDS011;10104;50.732;10.174;2024-02-26T09:24:11;3.37;;;2.07;;
19883;SDS011;10104;50.732;10.174;2024-02-26T09:26:52;2.60;;;1.80;;
19883;SDS011;10104;50.732;10.174;2024-02-26T09:29:32;2.63;;;1.73;;
19883;SDS011;10104;50.732;10.174;2024-02-26T09:32:14;3.33;;;2.30;;
19883;SDS011;10104;50.732;10.174;2024-02-26T09:34:55;5.40;;;2.53;;
19883;SDS011;10104;50.732;10.174;2024-02-26T09:37:35;2.87;;;1.90;;
19883;SDS011;10104;50.732;10.174;2024-02-26T09:40:16;2.23;;;2.00;;
19883;SDS011;10104;50.732;10.174;2024-02-26T09:42:59;5.40;;;3.57;;
19883;SDS011;10104;50.732;10.174;2024-02-26T09:45:40;6.53;;;4.27;;
19883;SDS011;10104;50.732;10.174;2024-02-26T09:48:21;5.03;;;2.77;;
19883;SDS011;10104;50.732;10.174;2024-02-26T09:51:02;3.90;;;2.67;;
19883;SDS011;10104;50.732;10.174;2024-02-26T09:53:43;3.80;;;2.50;;
19883;SDS011;10104;50.732;10.174;2024-02-26T09:56:25;3.13;;;2.10;;
19883;SDS011;10104;50.732;10.174;2024-02-26T09:59:06;3.40;;;2.40;;
19883;SDS011;10104;50.732;10.174;2024-02-26T10:01:49;3.97;;;3.23;;
19883;SDS011;10104;50.732;10.174;2024-02-26T10:04:31;3.67;;;2.73;;
19883;SDS011;10104;50.732;10.174;2024-02-26T10:07:12;6.83;;;4.90;;
19883;SDS011;10104;50.732;10.174;2024-02-26T10:09:53;6.53;;;4.10;;
19883;SDS011;10104;50.732;10.174;2024-02-26T10:12:33;6.83;;;4.20;;
19883;SDS011;10104;50.732;10.174;2024-02-26T10:15:14;10.17;;;5.93;;
19883;SDS011;10104;50.732;10.174;2024-02-26T10:17:54;12.03;;;6.43;;
19883;SDS011;10104;50.732;10.174;2024-02-26T10:20:34;13.33;;;7.03;;
19883;SDS011;10104;50.732;10.174;2024-02-26T10:23:15;10.03;;;5.73;;
19883;SDS011;10104;50.732;10.174;2024-02-26T10:25:57;8.40;;;4.70;;
19883;SDS011;10104;50.732;10.174;2024-02-26T10:28:37;8.67;;;5.07;;
19883;SDS011;10104;50.732;10.174;2024-02-26T10:31:17;6.47;;;3.73;;
19883;SDS011;10104;50.732;10.174;2024-02-26T10:33:57;7.57;;;3.90;;
19883;SDS011;10104;50.732;10.174;2024-02-26T10:36:42;5.40;;;3.17;;
19883;SDS011;10104;50.732;10.174;2024-02-26T10:39:32;7.67;;;3.73;;
19883;SDS011;10104;50.732;10.174;2024-02-26T10:42:13;7.03;;;3.10;;
19883;SDS011;10104;50.732;10.174;2024-02-26T10:44:55;4.10;;;2.60;;
19883;SDS011;10104;50.732;10.174;2024-02-26T10:47:35;4.67;;;3.30;;
19883;SDS011;10104;50.732;10.174;2024-02-26T10:50:16;3.07;;;2.50;;
19883;SDS011;10104;50.732;10.174;2024-02-26T10:52:57;3.43;;;2.60;;
19883;SDS011;10104;50.732;10.174;2024-02-26T10:55:37;3.70;;;2.37;;
19883;SDS011;10104;50.732;10.174;2024-02-26T10:58:19;3.83;;;2.40;;
19883;SDS011;10104;50.732;10.174;2024-02-26T11:01:00;4.60;;;2.33;;
19883;SDS011;10104;50.732;10.174;2024-02-26T11:03:41;4.07;;;2.45;;
19883;SDS011;10104;50.732;10.174;2024-02-26T11:06:22;3.33;;;2.47;;
19883;SDS011;10104;50.732;10.174;2024-02-26T11:09:03;3.10;;;2.40;;
19883;SDS011;10104;50.732;10.174;2024-02-26T11:11:46;4.47;;;2.60;;
19883;SDS011;10104;50.732;10.174;2024-02-26T11:14:27;3.38;;;2.50;;
19883;SDS011;10104;50.732;10.174;2024-02-26T11:17:09;3.42;;;2.10;;
19883;SDS011;10104;50.732;10.174;2024-02-26T11:19:51;3.95;;;2.50;;
19883;SDS011;10104;50.732;10.174;2024-02-26T11:22:33;4.28;;;2.63;;
19883;SDS011;10104;50.732;10.174;2024-02-26T11:25:14;2.90;;;2.30;;
19883;SDS011;10104;50.732;10.174;2024-02-26T11:27:58;4.28;;;2.28;;
19883;SDS011;10104;50.732;10.174;2024-02-26T11:30:43;4.15;;;3.15;;
19883;SDS011;10104;50.732;10.174;2024-02-26T11:33:26;7.13;;;3.67;;
19883;SDS011;10104;50.732;10.174;2024-02-26T11:36:08;3.97;;;2.60;;
19883;SDS011;10104;50.732;10.174;2024-02-26T11:38:49;2.88;;;2.50;;
19883;SDS011;10104;50.732;10.174;2024-02-26T11:41:31;4.63;;;2.65;;
19883;SDS011;10104;50.732;10.174;2024-02-26T11:44:11;7.13;;;2.90;;
19883;SDS011;10104;50.732;10.174;2024-02-26T11:46:52;3.72;;;2.90;;
19883;SDS011;10104;50.732;10.174;2024-02-26T11:49:32;3.40;;;2.78;;
19883;SDS011;10104;50.732;10.174;2024-02-26T11:52:13;4.35;;;2.70;;
19883;SDS011;10104;50.732;10.174;2024-02-26T11:54:56;4.30;;;3.20;;
19883;SDS011;10104;50.732;10.174;2024-02-26T12:00:17;4.95;;;3.50;;
19883;SDS011;10104;50.732;10.174;2024-02-26T12:03:02;4.85;;;3.30;;
19883;SDS011;10104;50.732;10.174;2024-02-26T12:05:47;3.45;;;2.60;;
19883;SDS011;10104;50.732;10.174;2024-02-26T12:08:28;4.72;;;3.13;;
19883;SDS011;10104;50.732;10.174;2024-02-26T12:11:14;5.50;;;3.50;;
19883;SDS011;10104;50.732;10.174;2024-02-26T12:13:56;3.90;;;2.83;;
19883;SDS011;10104;50.732;10.174;2024-02-26T12:16:37;4.13;;;2.90;;
19883;SDS011;10104;50.732;10.174;2024-02-26T12:19:18;4.53;;;3.08;;
19883;SDS011;10104;50.732;10.174;2024-02-26T12:21:59;5.18;;;3.30;;
19883;SDS011;10104;50.732;10.174;2024-02-26T12:24:39;5.75;;;3.70;;
19883;SDS011;10104;50.732;10.174;2024-02-26T12:27:19;3.75;;;2.80;;
19883;SDS011;10104;50.732;10.174;2024-02-26T12:29:59;4.20;;;2.95;;
19883;SDS011;10104;50.732;10.174;2024-02-26T12:32:40;4.68;;;3.15;;
19883;SDS011;10104;50.732;10.174;2024-02-26T12:35:20;4.70;;;3.42;;
19883;SDS011;10104;50.732;10.174;2024-02-26T12:38:01;4.70;;;3.42;;
19883;SDS011;10104;50.732;10.174;2024-02-26T12:40:44;4.13;;;2.97;;
19883;SDS011;10104;50.732;10.174;2024-02-26T12:43:25;3.30;;;2.50;;
19883;SDS011;10104;50.732;10.174;2024-02-26T12:46:06;5.00;;;3.58;;
19883;SDS011;10104;50.732;10.174;2024-02-26T12:48:46;4.15;;;3.05;;
19883;SDS011;10104;50.732;10.174;2024-02-26T12:51:27;4.30;;;2.75;;
19883;SDS011;10104;50.732;10.174;2024-02-26T12:54:08;3.42;;;2.67;;
19883;SDS011;10104;50.732;10.174;2024-02-26T12:56:49;3.70;;;2.63;;
19883;SDS011;10104;50.732;10.174;2024-02-26T12:59:30;5.25;;;3.30;;
19883;SDS011;10104;50.732;10.174;2024-02-26T13:02:11;4.10;;;2.53;;
19883;SDS011;10104;50.732;10.174;2024-02-26T13:04:51;3.20;;;2.50;;
19883;SDS011;10104;50.732;10.174;2024-02-26T13:07:32;4.55;;;2.42;;
19883;SDS011;10104;50.732;10.174;2024-02-26T13:10:13;5.13;;;3.05;;
19883;SDS011;10104;50.732;10.174;2024-02-26T13:12:54;4.88;;;2.95;;
19883;SDS011;10104;50.732;10.174;2024-02-26T13:15:34;3.38;;;2.60;;
19883;SDS011;10104;50.732;10.174;2024-02-26T13:18:15;3.70;;;2.80;;
19883;SDS011;10104;50.732;10.174;2024-02-26T13:21:06;2.78;;;2.47;;
19883;SDS011;10104;50.732;10.174;2024-02-26T13:23:48;5.40;;;2.95;;
19883;SDS011;10104;50.732;10.174;2024-02-26T13:26:30;5.50;;;3.65;;
19883;SDS011;10104;50.732;10.174;2024-02-26T13:29:17;4.32;;;2.90;;
19883;SDS011;10104;50.732;10.174;2024-02-26T13:31:58;3.72;;;2.90;;
19883;SDS011;10104;50.732;10.174;2024-02-26T13:34:38;5.20;;;3.55;;
19883;SDS011;10104;50.732;10.174;2024-02-26T13:37:19;3.83;;;2.83;;
19883;SDS011;10104;50.732;10.174;2024-02-26T13:39:59;2.70;;;2.08;;
19883;SDS011;10104;50.732;10.174;2024-02-26T13:42:39;5.00;;;4.50;;
19883;SDS011;10104;50.732;10.174;2024-02-26T13:45:19;4.03;;;3.40;;
19883;SDS011;10104;50.732;10.174;2024-02-26T13:48:03;7.78;;;4.55;;
19883;SDS011;10104;50.732;10.174;2024-02-26T13:50:45;4.07;;;2.50;;
19883;SDS011;10104;50.732;10.174;2024-02-26T13:53:26;2.95;;;2.50;;
19883;SDS011;10104;50.732;10.174;2024-02-26T13:56:06;3.63;;;2.05;;
19883;SDS011;10104;50.732;10.174;2024-02-26T13:58:47;4.10;;;2.28;;
19883;SDS011;10104;50.732;10.174;2024-02-26T14:01:27;3.63;;;2.13;;
19883;SDS011;10104;50.732;10.174;2024-02-26T14:04:08;3.35;;;2.40;;
19883;SDS011;10104;50.732;10.174;2024-02-26T14:06:49;2.72;;;1.95;;
19883;SDS011;10104;50.732;10.174;2024-02-26T14:09:29;4.38;;;2.03;;
19883;SDS011;10104;50.732;10.174;2024-02-26T14:12:24;6.35;;;4.38;;
19883;SDS011;10104;50.732;10.174;2024-02-26T14:15:08;2.10;;;1.90;;
19883;SDS011;10104;50.732;10.174;2024-02-26T14:17:52;2.47;;;1.83;;
19883;SDS011;10104;50.732;10.174;2024-02-26T14:20:36;4.43;;;2.60;;
19883;SDS011;10104;50.732;10.174;2024-02-26T14:23:16;4.50;;;3.28;;
19883;SDS011;10104;50.732;10.174;2024-02-26T14:25:56;5.90;;;4.20;;
19883;SDS011;10104;50.732;10.174;2024-02-26T14:28:36;5.30;;;3.83;;
19883;SDS011;10104;50.732;10.174;2024-02-26T14:31:19;6.65;;;4.20;;
19883;SDS011;10104;50.732;10.174;2024-02-26T14:33:59;6.82;;;4.30;;
19883;SDS011;10104;50.732;10.174;2024-02-26T14:36:40;7.70;;;4.60;;
19883;SDS011;10104;50.732;10.174;2024-02-26T14:39:20;8.40;;;5.22;;
19883;SDS011;10104;50.732;10.174;2024-02-26T14:42:01;9.93;;;6.68;;
19883;SDS011;10104;50.732;10.174;2024-02-26T14:44:42;8.30;;;5.68;;
19883;SDS011;10104;50.732;10.174;2024-02-26T14:47:22;10.02;;;6.75;;
19883;SDS011;10104;50.732;10.174;2024-02-26T14:50:02;12.45;;;6.97;;
19883;SDS011;10104;50.732;10.174;2024-02-26T14:52:43;10.32;;;6.70;;
19883;SDS011;10104;50.732;10.174;2024-02-26T14:55:24;11.00;;;8.35;;
19883;SDS011;10104;50.732;10.174;2024-02-26T14:58:05;10.48;;;7.57;;
19883;SDS011;10104;50.732;10.174;2024-02-26T15:00:45;13.95;;;8.32;;
19883;SDS011;10104;50.732;10.174;2024-02-26T15:03:25;16.52;;;9.85;;
19883;SDS011;10104;50.732;10.174;2024-02-26T15:06:06;15.32;;;10.65;;
19883;SDS011;10104;50.732;10.174;2024-02-26T15:08:47;16.58;;;10.57;;
19883;SDS011;10104;50.732;10.174;2024-02-26T15:11:27;15.98;;;10.20;;
19883;SDS011;10104;50.732;10.174;2024-02-26T15:14:07;15.48;;;10.73;;
19883;SDS011;10104;50.732;10.174;2024-02-26T15:16:47;16.38;;;10.65;;
19883;SDS011;10104;50.732;10.174;2024-02-26T15:19:28;20.17;;;10.43;;
19883;SDS011;10104;50.732;10.174;2024-02-26T15:22:08;15.73;;;11.13;;
19883;SDS011;10104;50.732;10.174;2024-02-26T15:24:48;15.82;;;11.18;;
19883;SDS011;10104;50.732;10.174;2024-02-26T15:27:29;17.88;;;10.80;;
19883;SDS011;10104;50.732;10.174;2024-02-26T15:30:09;15.57;;;10.43;;
19883;SDS011;10104;50.732;10.174;2024-02-26T15:32:50;15.67;;;10.43;;
19883;SDS011;10104;50.732;10.174;2024-02-26T15:35:30;16.92;;;11.50;;
19883;SDS011;10104;50.732;10.174;2024-02-26T15:38:12;18.07;;;11.93;;
19883;SDS011;10104;50.732;10.174;2024-02-26T15:40:53;14.55;;;10.23;;
19883;SDS011;10104;50.732;10.174;2024-02-26T15:43:33;17.25;;;12.02;;
19883;SDS011;10104;50.732;10.174;2024-02-26T15:46:14;18.05;;;11.18;;
19883;SDS011;10104;50.732;10.174;2024-02-26T15:48:54;16.00;;;10.90;;
19883;SDS011;10104;50.732;10.174;2024-02-26T15:51:34;14.93;;;10.07;;
19883;SDS011;10104;50.732;10.174;2024-02-26T15:54:15;16.33;;;11.47;;